createdAt,value
2019-03-01T00:01:33.484Z,6.12
2019-03-01T00:04:08.118Z,6.13
2019-03-01T00:06:39.778Z,6.16
2019-03-01T00:09:29.599Z,6.09
2019-03-01T00:12:23.764Z,5.96
2019-03-01T00:15:29.119Z,5.81
2019-03-01T00:18:12.819Z,5.80
2019-03-01T00:20:47.359Z,5.84
2019-03-01T00:23:35.799Z,5.95
2019-03-01T00:26:10.624Z,5.83
2019-03-01T00:28:45.451Z,5.95
2019-03-01T00:31:22.831Z,6.14
2019-03-01T00:34:03.299Z,6.28
2019-03-01T00:36:55.979Z,6.45
2019-03-01T00:39:36.545Z,6.49
2019-03-01T00:42:26.105Z,6.34
2019-03-01T00:44:54.851Z,6.34
2019-03-01T00:47:23.609Z,6.50
2019-03-01T00:49:52.383Z,6.42
2019-03-01T00:52:21.136Z,6.49
2019-03-01T00:54:49.914Z,6.54
2019-03-01T00:57:18.665Z,6.43
2019-03-01T00:59:47.440Z,6.45
2019-03-01T01:02:16.181Z,6.36
2019-03-01T01:04:44.974Z,6.39
2019-03-01T01:07:14.125Z,6.38
2019-03-01T01:09:42.881Z,6.36
2019-03-01T01:12:11.648Z,6.39
2019-03-01T01:14:40.399Z,6.37
2019-03-01T01:17:09.159Z,6.28
2019-03-01T01:19:37.898Z,6.21
2019-03-01T01:22:06.664Z,6.20
2019-03-01T01:24:35.409Z,6.24
2019-03-01T01:27:04.266Z,6.19
2019-03-01T01:29:33.023Z,6.12
2019-03-01T01:32:01.921Z,6.07
2019-03-01T01:34:30.680Z,6.08
2019-03-01T01:36:59.426Z,6.18
2019-03-01T01:39:28.185Z,6.14
2019-03-01T01:41:57.846Z,6.15
2019-03-01T01:44:26.635Z,6.06
2019-03-01T01:46:55.658Z,6.16
2019-03-01T01:49:24.434Z,6.10
2019-03-01T01:51:53.180Z,6.11
2019-03-01T01:54:21.969Z,6.16
2019-03-01T01:56:50.689Z,6.09
2019-03-01T01:59:19.438Z,6.07
2019-03-01T02:01:48.218Z,6.02
2019-03-01T02:04:16.948Z,5.98
2019-03-01T02:06:46.050Z,5.99
2019-03-01T02:09:21.313Z,6.00
2019-03-01T02:11:50.387Z,5.93
2019-03-01T02:14:19.129Z,5.91
2019-03-01T02:16:47.945Z,5.86
2019-03-01T02:19:16.687Z,5.80
2019-03-01T02:21:45.480Z,5.85
2019-03-01T02:24:14.415Z,5.81
2019-03-01T02:26:43.159Z,5.77
2019-03-01T02:29:11.944Z,5.83
2019-03-01T02:31:43.792Z,5.87
2019-03-01T02:34:12.580Z,5.92
2019-03-01T02:36:41.319Z,5.92
2019-03-01T02:39:10.079Z,5.97
2019-03-01T02:41:39.222Z,6.08
2019-03-01T02:44:07.980Z,6.12
2019-03-01T02:46:36.725Z,6.02
2019-03-01T02:49:05.499Z,6.11
2019-03-01T02:51:34.242Z,6.09
2019-03-01T02:54:03.020Z,5.98
2019-03-01T02:56:31.768Z,5.99
2019-03-01T02:59:00.540Z,6.05
2019-03-01T03:01:29.289Z,5.99
2019-03-01T03:03:58.044Z,5.93
2019-03-01T03:06:28.382Z,5.97
2019-03-01T03:08:57.096Z,6.05
2019-03-01T03:11:26.087Z,5.90
2019-03-01T03:13:54.827Z,5.92
2019-03-01T03:16:23.599Z,5.89
2019-03-01T03:18:52.346Z,5.89
2019-03-01T03:21:21.337Z,5.81
2019-03-01T03:23:50.073Z,5.78
2019-03-01T03:26:18.843Z,5.78
2019-03-01T03:28:47.580Z,5.89
2019-03-01T03:31:16.386Z,5.87
2019-03-01T03:33:45.122Z,5.89
2019-03-01T03:36:13.860Z,5.85
2019-03-01T03:38:42.983Z,5.82
2019-03-01T03:41:12.254Z,5.83
2019-03-01T03:43:41.030Z,5.88
2019-03-01T03:46:09.763Z,5.83
2019-03-01T03:48:38.532Z,5.72
2019-03-01T03:51:07.297Z,5.74
2019-03-01T03:53:36.064Z,5.81
2019-03-01T03:56:04.797Z,5.77
2019-03-01T03:58:33.958Z,5.81
2019-03-01T04:01:02.720Z,5.82
2019-03-01T04:03:31.509Z,5.80
2019-03-01T04:06:00.559Z,5.71
2019-03-01T04:08:29.319Z,5.61
2019-03-01T04:10:58.089Z,5.65
2019-03-01T04:13:26.838Z,5.70
2019-03-01T04:15:55.905Z,5.75
2019-03-01T04:18:24.655Z,5.82
2019-03-01T04:20:53.399Z,5.66
2019-03-01T04:23:22.165Z,5.64
2019-03-01T04:25:50.911Z,5.66
2019-03-01T04:28:19.685Z,5.61
2019-03-01T04:30:48.445Z,5.56
2019-03-01T04:33:17.481Z,5.66
2019-03-01T04:35:46.248Z,5.63
2019-03-01T04:38:15.343Z,5.56
2019-03-01T04:40:44.095Z,5.56
2019-03-01T04:43:12.863Z,5.63
2019-03-01T04:45:41.625Z,5.73
2019-03-01T04:48:10.344Z,5.68
2019-03-01T04:50:39.125Z,5.74
2019-03-01T04:53:08.187Z,5.75
2019-03-01T04:55:37.379Z,5.74
2019-03-01T04:58:06.123Z,5.75
2019-03-01T05:00:34.899Z,5.71
2019-03-01T05:03:03.640Z,5.68
2019-03-01T05:05:32.434Z,5.72
2019-03-01T05:08:01.184Z,5.74
2019-03-01T05:10:29.920Z,5.73
2019-03-01T05:12:58.708Z,5.68
2019-03-01T05:15:27.666Z,5.71
2019-03-01T05:17:56.441Z,5.65
2019-03-01T05:20:25.180Z,5.64
2019-03-01T05:22:53.959Z,5.63
2019-03-01T05:25:22.689Z,5.60
2019-03-01T05:27:51.484Z,5.52
2019-03-01T05:30:20.243Z,5.58
2019-03-01T05:32:48.985Z,5.59
2019-03-01T05:35:17.728Z,5.56
2019-03-01T05:37:46.465Z,5.62
2019-03-01T05:40:16.741Z,5.53
2019-03-01T05:42:45.493Z,5.51
2019-03-01T05:45:20.084Z,5.53
2019-03-01T05:47:48.839Z,5.47
2019-03-01T05:50:17.699Z,5.45
2019-03-01T05:52:46.440Z,5.41
2019-03-01T05:55:15.524Z,5.32
2019-03-01T05:58:21.835Z,5.45
2019-03-01T06:00:52.509Z,5.46
2019-03-01T06:03:51.483Z,5.37
2019-03-01T06:06:40.873Z,5.37
2019-03-01T06:09:12.538Z,5.41
2019-03-01T06:11:52.906Z,5.39
2019-03-01T06:14:45.740Z,5.44
2019-03-01T06:17:26.238Z,5.43
2019-03-01T06:20:18.785Z,5.46
2019-03-01T06:22:56.540Z,5.39
2019-03-01T06:25:37.090Z,5.39
2019-03-01T06:28:17.379Z,5.49
2019-03-01T06:31:00.837Z,5.47
2019-03-01T06:33:55.942Z,5.49
2019-03-01T06:36:51.814Z,5.52
2019-03-01T06:39:56.554Z,5.57
2019-03-01T06:42:44.084Z,5.67
2019-03-01T06:45:24.574Z,5.72
2019-03-01T06:47:53.640Z,5.81
2019-03-01T06:50:24.005Z,5.72
2019-03-01T06:52:52.741Z,5.81
2019-03-01T06:55:30.274Z,5.88
2019-03-01T06:57:59.019Z,5.96
2019-03-01T07:00:28.894Z,5.99
2019-03-01T07:02:59.150Z,6.04
2019-03-01T07:05:27.938Z,6.09
2019-03-01T07:07:56.693Z,6.13
2019-03-01T07:10:25.519Z,6.15
2019-03-01T07:12:54.266Z,6.19
2019-03-01T07:15:23.007Z,6.25
2019-03-01T07:17:51.795Z,6.26
2019-03-01T07:20:20.558Z,6.34
2019-03-01T07:22:49.344Z,6.30
2019-03-01T07:25:18.094Z,6.40
2019-03-01T07:27:46.899Z,6.48
2019-03-01T07:30:16.011Z,6.44
2019-03-01T07:32:44.760Z,6.46
2019-03-01T07:35:13.533Z,6.50
2019-03-01T07:37:42.302Z,6.46
2019-03-01T07:40:13.014Z,6.55
2019-03-01T07:42:43.226Z,6.59
2019-03-01T07:45:13.399Z,6.68
2019-03-01T07:47:42.144Z,6.74
2019-03-01T07:50:13.221Z,6.79
2019-03-01T07:52:41.959Z,6.78
2019-03-01T07:55:12.291Z,6.71
2019-03-01T07:57:41.013Z,6.73
2019-03-01T08:00:15.022Z,6.81
2019-03-01T08:02:45.692Z,6.78
2019-03-01T08:05:16.327Z,6.77
2019-03-01T08:07:55.453Z,6.68
2019-03-01T08:10:20.618Z,6.69
2019-03-01T08:12:47.714Z,6.69
2019-03-01T08:15:18.736Z,6.68
2019-03-01T08:17:47.533Z,6.62
2019-03-01T08:20:17.871Z,6.73
2019-03-01T08:22:48.949Z,6.64
2019-03-01T08:25:22.831Z,6.64
2019-03-01T08:27:50.330Z,6.57
2019-03-01T08:30:18.940Z,6.57
2019-03-01T08:32:48.041Z,6.55
2019-03-01T08:35:18.882Z,6.45
2019-03-01T08:37:53.029Z,6.50
2019-03-01T08:40:19.349Z,6.52
2019-03-01T08:42:48.236Z,6.50
2019-03-01T08:45:21.667Z,6.44
2019-03-01T08:47:50.799Z,6.46
2019-03-01T08:50:19.538Z,6.44
2019-03-01T08:52:48.655Z,6.41
2019-03-01T08:55:23.170Z,6.44
2019-03-01T08:57:51.930Z,6.42
2019-03-01T09:00:28.034Z,6.34
2019-03-01T09:03:00.201Z,6.34
2019-03-01T09:05:28.959Z,6.45
2019-03-01T09:07:57.735Z,6.43
2019-03-01T09:10:29.249Z,6.25
2019-03-01T09:12:56.964Z,6.26
2019-03-01T09:15:25.705Z,6.18
2019-03-01T09:17:56.112Z,6.20
2019-03-01T09:20:24.854Z,6.25
2019-03-01T09:22:53.600Z,6.27
2019-03-01T09:25:22.383Z,6.21
2019-03-01T09:27:51.339Z,6.18
2019-03-01T09:30:22.850Z,6.22
2019-03-01T09:32:51.604Z,6.23
2019-03-01T09:35:39.802Z,6.23
2019-03-01T09:38:08.949Z,6.19
2019-03-01T09:40:37.743Z,6.22
2019-03-01T09:43:06.504Z,6.26
2019-03-01T09:45:36.534Z,6.20
2019-03-01T09:48:08.754Z,6.22
2019-03-01T09:50:38.097Z,6.23
2019-03-01T09:53:06.913Z,6.15
2019-03-01T09:55:37.672Z,6.16
2019-03-01T09:58:08.486Z,6.28
2019-03-01T10:00:56.370Z,6.13
2019-03-01T10:03:23.080Z,6.19
2019-03-01T10:05:51.832Z,6.06
2019-03-01T10:08:20.592Z,6.02
2019-03-01T10:10:49.346Z,5.94
2019-03-01T10:13:18.455Z,5.76
2019-03-01T10:15:47.224Z,5.64
2019-03-01T10:18:15.979Z,5.48
2019-03-01T10:20:44.759Z,5.42
2019-03-01T10:23:13.524Z,5.38
2019-03-01T10:25:42.345Z,5.28
2019-03-01T10:28:11.099Z,5.18
2019-03-01T10:30:39.884Z,5.10
2019-03-01T10:33:08.744Z,5.10
2019-03-01T10:35:37.519Z,5.14
2019-03-01T10:38:06.265Z,5.20
2019-03-01T10:40:35.144Z,5.21
2019-03-01T10:43:03.889Z,5.21
2019-03-01T10:45:33.810Z,5.28
2019-03-01T10:48:02.559Z,5.30
2019-03-01T10:50:31.793Z,5.38
2019-03-01T10:53:00.539Z,5.38
2019-03-01T10:55:29.670Z,5.16
2019-03-01T10:57:58.454Z,5.22
2019-03-01T11:00:31.641Z,5.28
2019-03-01T11:03:00.425Z,4.99
2019-03-01T11:05:29.274Z,4.87
2019-03-01T11:07:58.457Z,4.71
2019-03-01T11:10:29.706Z,4.96
2019-03-01T11:12:58.545Z,4.91
2019-03-01T11:15:27.638Z,4.96
2019-03-01T11:17:56.438Z,5.04
2019-03-01T11:20:25.999Z,5.04
2019-03-01T11:22:54.755Z,4.93
2019-03-01T11:25:27.283Z,5.02
2019-03-01T11:27:56.438Z,4.99
2019-03-01T11:30:27.988Z,4.99
2019-03-01T11:32:56.735Z,4.68
2019-03-01T11:35:25.514Z,4.56
2019-03-01T11:37:54.683Z,4.66
2019-03-01T11:40:34.765Z,4.56
2019-03-01T11:43:04.127Z,4.48
2019-03-01T11:45:33.158Z,4.51
2019-03-01T11:48:04.545Z,4.58
2019-03-01T11:50:33.844Z,4.47
2019-03-01T11:53:02.902Z,4.42
2019-03-01T11:55:32.598Z,4.46
2019-03-01T11:58:01.584Z,4.46
2019-03-01T12:00:30.644Z,4.44
2019-03-01T12:03:01.221Z,4.77
2019-03-01T12:05:29.964Z,4.92
2019-03-01T12:07:58.676Z,4.89
2019-03-01T12:10:31.905Z,5.07
2019-03-01T12:13:00.679Z,5.07
2019-03-01T12:15:30.901Z,4.99
2019-03-01T12:18:01.142Z,5.09
2019-03-01T12:20:32.100Z,5.15
2019-03-01T12:23:00.841Z,4.71
2019-03-01T12:25:29.636Z,4.37
2019-03-01T12:27:59.858Z,4.46
2019-03-01T12:30:30.414Z,4.41
2019-03-01T12:32:59.154Z,4.66
2019-03-01T12:35:27.924Z,4.92
2019-03-01T12:37:56.762Z,4.98
2019-03-01T12:40:27.784Z,5.12
2019-03-01T12:42:56.538Z,5.24
2019-03-01T12:45:25.384Z,5.24
2019-03-01T12:47:54.189Z,5.28
2019-03-01T12:50:23.167Z,5.14
2019-03-01T12:52:51.915Z,5.22
2019-03-01T12:55:26.042Z,5.17
2019-03-01T12:57:54.804Z,5.22
2019-03-01T13:00:29.065Z,5.22
2019-03-01T13:02:57.845Z,5.27
2019-03-01T13:05:29.153Z,5.13
2019-03-01T13:07:58.889Z,5.25
2019-03-01T13:10:30.503Z,5.39
2019-03-01T13:13:02.233Z,5.49
2019-03-01T13:15:31.590Z,5.50
2019-03-01T13:18:00.399Z,5.39
2019-03-01T13:20:29.931Z,5.33
2019-03-01T13:23:00.941Z,5.23
2019-03-01T13:25:30.252Z,5.32
2019-03-01T13:27:59.113Z,5.39
2019-03-01T13:30:32.610Z,5.43
2019-03-01T13:33:02.511Z,5.52
2019-03-01T13:35:30.795Z,5.45
2019-03-01T13:38:01.400Z,5.51
2019-03-01T13:40:30.379Z,5.36
2019-03-01T13:42:59.123Z,5.44
2019-03-01T13:45:27.937Z,5.30
2019-03-01T13:47:56.700Z,5.41
2019-03-01T13:50:26.247Z,5.36
2019-03-01T13:52:55.020Z,5.43
2019-03-01T13:55:23.994Z,5.36
2019-03-01T13:57:53.044Z,5.40
2019-03-01T14:00:22.989Z,5.37
2019-03-01T14:02:53.376Z,5.28
2019-03-01T14:05:22.144Z,5.26
2019-03-01T14:07:56.643Z,5.17
2019-03-01T14:10:29.588Z,5.24
2019-03-01T14:12:58.390Z,5.17
2019-03-01T14:15:27.141Z,5.11
2019-03-01T14:18:00.664Z,5.09
2019-03-01T14:20:26.684Z,5.13
2019-03-01T14:22:55.440Z,4.90
2019-03-01T14:25:24.195Z,4.88
2019-03-01T14:27:53.111Z,4.77
2019-03-01T14:30:30.264Z,4.61
2019-03-01T14:32:58.772Z,4.48
2019-03-01T14:35:28.378Z,4.29
2019-03-01T14:37:57.459Z,4.20
2019-03-01T14:40:26.218Z,3.98
2019-03-01T14:42:54.999Z,4.05
2019-03-01T14:45:29.149Z,3.96
2019-03-01T14:47:58.034Z,4.15
2019-03-01T14:50:33.273Z,3.99
2019-03-01T14:52:59.206Z,4.04
2019-03-01T14:55:36.732Z,4.08
2019-03-01T14:58:11.023Z,4.29
2019-03-01T15:00:50.882Z,4.37
2019-03-01T15:03:36.090Z,4.38
2019-03-01T15:06:07.536Z,4.46
2019-03-01T15:08:40.501Z,4.46
2019-03-01T15:11:13.877Z,4.60
2019-03-01T15:13:43.556Z,4.65
2019-03-01T15:16:14.312Z,4.60
2019-03-01T15:18:46.697Z,4.61
2019-03-01T15:21:15.825Z,4.56
2019-03-01T15:23:46.171Z,4.59
2019-03-01T15:26:15.376Z,4.50
2019-03-01T15:28:53.917Z,4.40
2019-03-01T15:31:20.681Z,4.49
2019-03-01T15:33:49.463Z,4.46
2019-03-01T15:36:20.139Z,4.41
2019-03-01T15:38:51.698Z,4.43
2019-03-01T15:41:20.451Z,4.50
2019-03-01T15:43:51.900Z,4.42
2019-03-01T15:46:20.654Z,4.39
2019-03-01T15:48:51.201Z,4.48
2019-03-01T15:51:19.960Z,4.52
2019-03-01T15:53:50.169Z,4.53
2019-03-01T15:56:18.906Z,4.51
2019-03-01T15:58:47.704Z,4.52
2019-03-01T16:01:16.451Z,4.49
2019-03-01T16:03:45.324Z,4.57
2019-03-01T16:06:19.167Z,4.60
2019-03-01T16:08:48.080Z,4.51
2019-03-01T16:11:15.219Z,4.50
2019-03-01T16:13:47.991Z,4.55
2019-03-01T16:16:14.638Z,4.62
2019-03-01T16:18:44.974Z,4.64
2019-03-01T16:21:13.732Z,4.65
2019-03-01T16:23:45.660Z,4.65
2019-03-01T16:26:14.416Z,4.62
2019-03-01T16:28:43.616Z,4.55
2019-03-01T16:31:13.408Z,4.48
2019-03-01T16:33:42.144Z,4.56
2019-03-01T16:36:13.560Z,4.44
2019-03-01T16:38:47.616Z,4.35
2019-03-01T16:41:13.064Z,4.44
2019-03-01T16:43:41.726Z,4.35
2019-03-01T16:46:10.508Z,4.32
2019-03-01T16:48:39.271Z,4.30
2019-03-01T16:51:10.200Z,4.32
2019-03-01T16:53:40.599Z,4.27
2019-03-01T16:56:09.927Z,4.32
2019-03-01T16:58:40.272Z,4.23
2019-03-01T17:01:09.041Z,4.09
2019-03-01T17:03:37.885Z,4.11
2019-03-01T17:06:06.662Z,4.24
2019-03-01T17:08:36.352Z,4.35
2019-03-01T17:11:06.667Z,4.28
2019-03-01T17:13:35.641Z,4.03
2019-03-01T17:16:04.425Z,4.12
2019-03-01T17:18:33.229Z,4.08
2019-03-01T17:21:02.198Z,4.08
2019-03-01T17:23:31.147Z,4.06
2019-03-01T17:25:59.929Z,3.98
2019-03-01T17:28:28.976Z,3.96
2019-03-01T17:30:58.282Z,3.94
2019-03-01T17:33:27.544Z,3.97
2019-03-01T17:35:56.333Z,3.93
2019-03-01T17:38:25.580Z,3.86
2019-03-01T17:40:56.035Z,3.79
2019-03-01T17:43:26.003Z,3.83
2019-03-01T17:45:57.761Z,3.73
2019-03-01T17:48:27.014Z,3.83
2019-03-01T17:51:00.098Z,3.91
2019-03-01T17:53:28.844Z,4.03
2019-03-01T17:55:59.876Z,4.07
2019-03-01T17:58:30.333Z,4.15
2019-03-01T18:01:02.935Z,4.19
2019-03-01T18:03:32.529Z,4.25
2019-03-01T18:06:01.306Z,4.27
2019-03-01T18:08:30.410Z,4.28
2019-03-01T18:11:00.203Z,4.25
2019-03-01T18:13:28.981Z,4.22
2019-03-01T18:15:57.748Z,4.19
2019-03-01T18:18:26.487Z,4.11
2019-03-01T18:20:55.285Z,4.19
2019-03-01T18:23:24.034Z,4.15
2019-03-01T18:25:52.785Z,4.18
2019-03-01T18:28:24.829Z,4.19
2019-03-01T18:30:56.308Z,4.16
2019-03-01T18:33:25.156Z,4.09
2019-03-01T18:35:55.779Z,4.12
2019-03-01T18:38:31.321Z,4.12
2019-03-01T18:40:58.211Z,4.10
2019-03-01T18:43:27.046Z,4.15
2019-03-01T18:45:55.841Z,4.12
2019-03-01T18:48:24.704Z,4.76
2019-03-01T18:50:53.809Z,5.39
2019-03-01T18:53:25.068Z,5.96
2019-03-01T18:55:53.751Z,5.97
2019-03-01T18:58:22.523Z,5.26
2019-03-01T19:00:53.363Z,4.99
2019-03-01T19:03:22.251Z,4.59
2019-03-01T19:05:51.335Z,4.34
2019-03-01T19:08:20.657Z,4.22
2019-03-01T19:10:54.322Z,3.95
2019-03-01T19:13:24.318Z,3.98
2019-03-01T19:15:54.763Z,3.99
2019-03-01T19:18:23.780Z,4.09
2019-03-01T19:20:56.383Z,4.06
2019-03-01T19:23:29.344Z,4.11
2019-03-01T19:25:57.887Z,4.05
2019-03-01T19:28:28.149Z,4.10
2019-03-01T19:30:58.979Z,4.14
2019-03-01T19:33:28.085Z,4.06
2019-03-01T19:35:57.164Z,4.08
2019-03-01T19:38:29.135Z,3.75
2019-03-01T19:40:58.230Z,3.97
2019-03-01T19:43:27.526Z,4.00
2019-03-01T19:45:56.356Z,3.83
2019-03-01T19:48:25.235Z,3.68
2019-03-01T19:50:54.385Z,3.57
2019-03-01T19:53:25.473Z,3.44
2019-03-01T19:55:54.137Z,3.41
2019-03-01T19:58:24.635Z,3.49
2019-03-01T20:00:53.729Z,3.51
2019-03-01T20:03:22.570Z,3.60
2019-03-01T20:05:51.389Z,3.51
2019-03-01T20:08:20.336Z,3.38
2019-03-01T20:10:51.003Z,3.51
2019-03-01T20:13:19.779Z,3.31
2019-03-01T20:15:48.755Z,3.25
2019-03-01T20:18:17.908Z,3.24
2019-03-01T20:20:48.133Z,3.15
2019-03-01T20:23:17.074Z,3.01
2019-03-01T20:25:50.650Z,2.96
2019-03-01T20:28:23.344Z,3.02
2019-03-01T20:31:01.537Z,3.05
2019-03-01T20:33:30.290Z,3.08
2019-03-01T20:35:59.383Z,3.19
2019-03-01T20:38:28.474Z,3.22
2019-03-01T20:40:59.772Z,3.33
2019-03-01T20:43:28.204Z,3.27
2019-03-01T20:45:56.994Z,3.31
2019-03-01T20:48:28.978Z,3.36
2019-03-01T20:50:56.601Z,3.37
2019-03-01T20:53:25.394Z,3.40
2019-03-01T20:55:54.168Z,3.38
2019-03-01T20:58:23.005Z,3.41
2019-03-01T21:00:51.800Z,3.37
2019-03-01T21:03:24.137Z,3.25
2019-03-01T21:05:51.055Z,3.29
2019-03-01T21:08:20.147Z,3.24
2019-03-01T21:10:51.790Z,3.27
2019-03-01T21:13:20.544Z,3.27
2019-03-01T21:15:49.312Z,3.24
2019-03-01T21:18:18.080Z,3.13
2019-03-01T21:20:46.929Z,3.14
2019-03-01T21:23:15.946Z,3.16
2019-03-01T21:25:44.925Z,3.01
2019-03-01T21:28:15.084Z,3.02
2019-03-01T21:30:45.565Z,3.00
2019-03-01T21:33:14.465Z,3.01
2019-03-01T21:35:43.248Z,2.99
2019-03-01T21:38:13.903Z,2.98
2019-03-01T21:40:44.440Z,2.92
2019-03-01T21:43:13.610Z,2.94
2019-03-01T21:45:42.354Z,2.74
2019-03-01T21:48:12.119Z,2.74
2019-03-01T21:50:42.425Z,2.77
2019-03-01T21:53:11.404Z,2.76
2019-03-01T21:55:40.161Z,2.82
2019-03-01T21:58:08.946Z,2.90
2019-03-01T22:00:37.799Z,2.75
2019-03-01T22:03:06.573Z,2.76
2019-03-01T22:05:35.359Z,2.81
2019-03-01T22:08:04.226Z,2.95
2019-03-01T22:10:35.597Z,2.88
2019-03-01T22:13:05.049Z,2.84
2019-03-01T22:15:33.794Z,2.90
2019-03-01T22:18:02.869Z,2.78
2019-03-01T22:20:33.060Z,2.82
2019-03-01T22:23:01.869Z,2.83
2019-03-01T22:25:30.625Z,2.66
2019-03-01T22:28:01.346Z,2.77
2019-03-01T22:30:32.384Z,2.64
2019-03-01T22:33:01.158Z,2.64
2019-03-01T22:35:29.905Z,2.58
2019-03-01T22:38:01.152Z,2.48
2019-03-01T22:40:29.482Z,2.45
2019-03-01T22:42:58.462Z,2.42
2019-03-01T22:45:27.201Z,2.37
2019-03-01T22:47:55.949Z,2.44
2019-03-01T22:50:25.647Z,2.47
2019-03-01T22:52:54.403Z,2.52
2019-03-01T22:55:23.189Z,2.46
2019-03-01T22:57:54.219Z,2.48
2019-03-01T23:00:30.197Z,2.49
2019-03-01T23:02:59.128Z,2.59
2019-03-01T23:05:27.909Z,2.53
2019-03-01T23:08:00.037Z,2.60
2019-03-01T23:10:27.571Z,2.59
2019-03-01T23:12:56.315Z,2.53
2019-03-01T23:15:25.736Z,2.47
2019-03-01T23:17:54.488Z,2.40
2019-03-01T23:20:26.652Z,2.39
2019-03-01T23:22:55.424Z,2.36
2019-03-01T23:25:24.242Z,2.36
2019-03-01T23:27:52.979Z,2.26
2019-03-01T23:30:22.228Z,2.29
2019-03-01T23:32:52.716Z,2.25
2019-03-01T23:35:21.399Z,2.23
2019-03-01T23:37:51.995Z,2.16
2019-03-01T23:40:20.742Z,2.14
2019-03-01T23:42:49.545Z,2.21
2019-03-01T23:45:18.565Z,2.14
2019-03-01T23:47:47.639Z,2.06
2019-03-01T23:50:16.369Z,1.91
2019-03-01T23:52:45.156Z,1.80
2019-03-01T23:55:15.607Z,1.71
2019-03-01T23:57:44.408Z,1.64
